Terminal Aerodrome Forecast
Issued by NWS Wichita, KS

Home | Current Version | Previous Version | Graphics & Text | Print | Product List | Glossary On
Versions: 1 2 3 4 5 6 7 8 9 10 11 12 13 14 15
000
FTUS43 KICT 311139
TAFICT
TAF
KICT 311139Z 3112/0112 17007KT P6SM -RA OVC060
     FM311500 16014KT 4SM -RA SCT015 OVC025
     FM311900 17013KT 2SM -RA BKN007 OVC015
     FM010900 31013KT 1 1/2SM -RASN SCT007 BKN015=

USA.gov is the U.S. government's official web portal to all federal, state and local government web resources and services.